sensor_id;sensor_type;location;lat;lon;timestamp;pressure;altitude;pressure_sealevel;temperature;humidity
21863;BME280;11096;51.338;12.524;2023-05-24T00:00:03;100514.91;;;10.05;71.37
21863;BME280;11096;51.338;12.524;2023-05-24T00:02:30;100516.84;;;10.16;70.71
21863;BME280;11096;51.338;12.524;2023-05-24T00:04:55;100514.78;;;10.06;70.80
21863;BME280;11096;51.338;12.524;2023-05-24T00:07:24;100518.53;;;10.02;70.86
21863;BME280;11096;51.338;12.524;2023-05-24T00:09:50;100520.56;;;10.12;71.05
21863;BME280;11096;51.338;12.524;2023-05-24T00:12:15;100517.47;;;9.76;70.74
21863;BME280;11096;51.338;12.524;2023-05-24T00:14:41;100519.44;;;9.87;71.50
21863;BME280;11096;51.338;12.524;2023-05-24T00:17:06;100523.34;;;9.80;72.28
21863;BME280;11096;51.338;12.524;2023-05-24T00:19:32;100526.28;;;9.88;72.28
21863;BME280;11096;51.338;12.524;2023-05-24T00:21:57;100520.16;;;9.89;72.19
21863;BME280;11096;51.338;12.524;2023-05-24T00:24:22;100517.84;;;9.84;72.24
21863;BME280;11096;51.338;12.524;2023-05-24T00:26:48;100514.69;;;9.94;72.48
21863;BME280;11096;51.338;12.524;2023-05-24T00:29:13;100522.97;;;9.86;72.62
21863;BME280;11096;51.338;12.524;2023-05-24T00:31:39;100526.78;;;9.95;72.69
21863;BME280;11096;51.338;12.524;2023-05-24T00:34:04;100528.50;;;9.94;73.14
21863;BME280;11096;51.338;12.524;2023-05-24T00:36:30;100527.94;;;9.89;73.58
21863;BME280;11096;51.338;12.524;2023-05-24T00:38:55;100522.50;;;9.94;73.64
21863;BME280;11096;51.338;12.524;2023-05-24T00:41:21;100530.38;;;9.78;74.04
21863;BME280;11096;51.338;12.524;2023-05-24T00:43:46;100523.63;;;9.89;74.47
21863;BME280;11096;51.338;12.524;2023-05-24T00:46:16;100528.34;;;9.97;73.80
21863;BME280;11096;51.338;12.524;2023-05-24T00:48:42;100524.06;;;9.82;74.11
21863;BME280;11096;51.338;12.524;2023-05-24T00:51:09;100524.78;;;9.55;74.29
21863;BME280;11096;51.338;12.524;2023-05-24T00:53:36;100528.41;;;9.67;74.30
21863;BME280;11096;51.338;12.524;2023-05-24T00:56:02;100525.34;;;9.60;73.94
21863;BME280;11096;51.338;12.524;2023-05-24T00:58:29;100521.28;;;9.71;73.61
21863;BME280;11096;51.338;12.524;2023-05-24T01:00:59;100521.66;;;9.79;73.49
21863;BME280;11096;51.338;12.524;2023-05-24T01:03:26;100520.75;;;9.80;73.09
21863;BME280;11096;51.338;12.524;2023-05-24T01:05:54;100526.56;;;9.83;72.67
21863;BME280;11096;51.338;12.524;2023-05-24T01:08:42;100530.38;;;9.78;72.85
21863;BME280;11096;51.338;12.524;2023-05-24T01:14:10;100534.53;;;9.80;72.93
21863;BME280;11096;51.338;12.524;2023-05-24T01:17:03;100528.03;;;9.73;72.52
21863;BME280;11096;51.338;12.524;2023-05-24T01:19:52;100532.41;;;9.73;72.61
21863;BME280;11096;51.338;12.524;2023-05-24T01:25:20;100531.09;;;9.65;72.64
21863;BME280;11096;51.338;12.524;2023-05-24T01:27:47;100537.03;;;9.67;72.74
21863;BME280;11096;51.338;12.524;2023-05-24T01:30:14;100537.00;;;9.53;73.18
21863;BME280;11096;51.338;12.524;2023-05-24T01:32:39;100540.69;;;9.49;73.31
21863;BME280;11096;51.338;12.524;2023-05-24T01:35:06;100547.41;;;9.37;74.38
21863;BME280;11096;51.338;12.524;2023-05-24T01:37:31;100541.09;;;9.27;75.17
21863;BME280;11096;51.338;12.524;2023-05-24T01:39:57;100546.72;;;9.50;74.62
21863;BME280;11096;51.338;12.524;2023-05-24T01:50:37;100546.59;;;9.37;75.96
21863;BME280;11096;51.338;12.524;2023-05-24T01:53:12;100551.38;;;9.59;75.06
21863;BME280;11096;51.338;12.524;2023-05-24T01:55:39;100545.81;;;9.51;74.68
21863;BME280;11096;51.338;12.524;2023-05-24T01:58:06;100548.59;;;9.48;75.02
21863;BME280;11096;51.338;12.524;2023-05-24T02:00:34;100546.91;;;9.46;74.47
21863;BME280;11096;51.338;12.524;2023-05-24T02:03:00;100545.34;;;9.58;74.23
21863;BME280;11096;51.338;12.524;2023-05-24T02:05:27;100544.22;;;9.48;73.91
21863;BME280;11096;51.338;12.524;2023-05-24T02:07:52;100545.81;;;9.51;73.87
21863;BME280;11096;51.338;12.524;2023-05-24T02:10:18;100536.78;;;9.42;74.48
21863;BME280;11096;51.338;12.524;2023-05-24T02:12:43;100537.91;;;9.38;74.73
21863;BME280;11096;51.338;12.524;2023-05-24T02:15:09;100539.41;;;9.56;74.41
21863;BME280;11096;51.338;12.524;2023-05-24T02:17:34;100531.41;;;9.45;74.23
21863;BME280;11096;51.338;12.524;2023-05-24T02:20:00;100531.59;;;9.42;74.25
21863;BME280;11096;51.338;12.524;2023-05-24T02:22:26;100534.56;;;9.36;74.49
21863;BME280;11096;51.338;12.524;2023-05-24T02:24:52;100535.47;;;9.35;74.21
21863;BME280;11096;51.338;12.524;2023-05-24T02:27:18;100527.16;;;9.44;74.29
21863;BME280;11096;51.338;12.524;2023-05-24T02:29:44;100529.00;;;9.42;74.24
21863;BME280;11096;51.338;12.524;2023-05-24T02:32:09;100531.16;;;9.19;74.00
21863;BME280;11096;51.338;12.524;2023-05-24T02:34:34;100533.09;;;9.16;74.21
21863;BME280;11096;51.338;12.524;2023-05-24T02:37:00;100526.44;;;8.96;74.93
21863;BME280;11096;51.338;12.524;2023-05-24T02:39:26;100524.75;;;9.11;74.91
21863;BME280;11096;51.338;12.524;2023-05-24T02:41:51;100529.81;;;9.28;74.73
21863;BME280;11096;51.338;12.524;2023-05-24T02:44:17;100523.44;;;9.34;74.04
21863;BME280;11096;51.338;12.524;2023-05-24T02:46:42;100521.75;;;9.33;73.87
21863;BME280;11096;51.338;12.524;2023-05-24T02:49:08;100520.47;;;9.40;73.59
21863;BME280;11096;51.338;12.524;2023-05-24T02:51:34;100513.81;;;9.36;73.38
21863;BME280;11096;51.338;12.524;2023-05-24T02:54:01;100516.16;;;9.24;73.34
21863;BME280;11096;51.338;12.524;2023-05-24T02:56:27;100520.03;;;9.17;73.33
21863;BME280;11096;51.338;12.524;2023-05-24T02:58:53;100515.72;;;9.02;73.75
21863;BME280;11096;51.338;12.524;2023-05-24T03:01:20;100514.78;;;9.03;73.44
21863;BME280;11096;51.338;12.524;2023-05-24T03:03:46;100510.53;;;9.02;73.65
21863;BME280;11096;51.338;12.524;2023-05-24T03:06:11;100511.69;;;9.12;73.00
21863;BME280;11096;51.338;12.524;2023-05-24T03:08:38;100513.38;;;8.97;73.57
21863;BME280;11096;51.338;12.524;2023-05-24T03:11:04;100504.59;;;9.00;73.30
21863;BME280;11096;51.338;12.524;2023-05-24T03:13:29;100516.22;;;9.09;72.92
21863;BME280;11096;51.338;12.524;2023-05-24T03:15:55;100506.88;;;9.06;73.14
21863;BME280;11096;51.338;12.524;2023-05-24T03:18:20;100504.84;;;9.11;72.47
21863;BME280;11096;51.338;12.524;2023-05-24T03:20:46;100507.06;;;9.17;71.97
21863;BME280;11096;51.338;12.524;2023-05-24T03:23:11;100508.00;;;9.16;72.10
21863;BME280;11096;51.338;12.524;2023-05-24T03:25:37;100505.50;;;9.15;72.16
21863;BME280;11096;51.338;12.524;2023-05-24T03:28:02;100501.69;;;9.06;72.08
21863;BME280;11096;51.338;12.524;2023-05-24T03:30:28;100497.13;;;9.10;71.94
21863;BME280;11096;51.338;12.524;2023-05-24T03:32:53;100507.31;;;8.98;71.89
21863;BME280;11096;51.338;12.524;2023-05-24T03:35:19;100505.84;;;9.09;71.93
21863;BME280;11096;51.338;12.524;2023-05-24T03:37:45;100517.38;;;8.57;72.44
21863;BME280;11096;51.338;12.524;2023-05-24T03:40:10;100517.09;;;8.77;73.36
21863;BME280;11096;51.338;12.524;2023-05-24T03:42:36;100518.59;;;8.81;73.37
21863;BME280;11096;51.338;12.524;2023-05-24T03:45:03;100520.88;;;8.72;73.10
21863;BME280;11096;51.338;12.524;2023-05-24T03:47:29;100520.84;;;9.03;72.69
21863;BME280;11096;51.338;12.524;2023-05-24T03:49:54;100527.41;;;9.09;72.64
21863;BME280;11096;51.338;12.524;2023-05-24T03:52:20;100525.41;;;9.14;72.01
21863;BME280;11096;51.338;12.524;2023-05-24T03:54:45;100521.22;;;9.12;71.73
21863;BME280;11096;51.338;12.524;2023-05-24T03:57:11;100528.50;;;9.05;71.96
21863;BME280;11096;51.338;12.524;2023-05-24T03:59:36;100529.34;;;9.06;72.00
21863;BME280;11096;51.338;12.524;2023-05-24T04:02:01;100530.06;;;9.23;71.74
21863;BME280;11096;51.338;12.524;2023-05-24T04:04:27;100540.78;;;9.17;71.44
21863;BME280;11096;51.338;12.524;2023-05-24T04:06:52;100534.63;;;9.04;72.34
21863;BME280;11096;51.338;12.524;2023-05-24T04:09:18;100537.53;;;9.14;71.96
21863;BME280;11096;51.338;12.524;2023-05-24T04:11:43;100542.47;;;9.18;72.13
21863;BME280;11096;51.338;12.524;2023-05-24T04:14:09;100543.13;;;9.22;71.76
21863;BME280;11096;51.338;12.524;2023-05-24T04:16:34;100537.03;;;9.23;72.03
21863;BME280;11096;51.338;12.524;2023-05-24T04:19:00;100549.66;;;9.13;72.18
21863;BME280;11096;51.338;12.524;2023-05-24T04:21:28;100543.59;;;9.29;71.99
21863;BME280;11096;51.338;12.524;2023-05-24T04:23:53;100546.00;;;9.01;72.42
21863;BME280;11096;51.338;12.524;2023-05-24T04:26:20;100545.97;;;9.17;72.19
21863;BME280;11096;51.338;12.524;2023-05-24T04:28:46;100542.50;;;9.33;71.84
21863;BME280;11096;51.338;12.524;2023-05-24T04:31:12;100544.44;;;9.29;71.95
21863;BME280;11096;51.338;12.524;2023-05-24T04:33:39;100551.47;;;9.27;72.38
21863;BME280;11096;51.338;12.524;2023-05-24T04:36:05;100558.34;;;9.12;72.93
21863;BME280;11096;51.338;12.524;2023-05-24T04:38:32;100556.66;;;9.27;73.14
21863;BME280;11096;51.338;12.524;2023-05-24T04:40:58;100561.25;;;9.22;72.93
21863;BME280;11096;51.338;12.524;2023-05-24T04:43:24;100562.53;;;9.15;73.03
21863;BME280;11096;51.338;12.524;2023-05-24T04:45:53;100560.94;;;9.12;73.08
21863;BME280;11096;51.338;12.524;2023-05-24T04:48:20;100562.53;;;9.15;73.14
21863;BME280;11096;51.338;12.524;2023-05-24T04:50:51;100573.91;;;9.12;73.46
21863;BME280;11096;51.338;12.524;2023-05-24T04:53:17;100574.41;;;9.19;73.22
21863;BME280;11096;51.338;12.524;2023-05-24T04:55:43;100573.63;;;9.33;73.48
21863;BME280;11096;51.338;12.524;2023-05-24T04:58:08;100574.06;;;9.25;73.38
21863;BME280;11096;51.338;12.524;2023-05-24T05:00:34;100582.16;;;9.35;74.02
21863;BME280;11096;51.338;12.524;2023-05-24T05:02:59;100576.97;;;9.35;73.72
21863;BME280;11096;51.338;12.524;2023-05-24T05:05:24;100577.38;;;9.43;73.50
21863;BME280;11096;51.338;12.524;2023-05-24T05:07:50;100580.66;;;9.31;73.03
21863;BME280;11096;51.338;12.524;2023-05-24T05:10:15;100583.19;;;9.16;73.29
21863;BME280;11096;51.338;12.524;2023-05-24T05:12:41;100586.25;;;9.39;73.98
21863;BME280;11096;51.338;12.524;2023-05-24T05:15:07;100591.94;;;9.30;74.10
21863;BME280;11096;51.338;12.524;2023-05-24T05:17:32;100600.56;;;9.30;73.98
21863;BME280;11096;51.338;12.524;2023-05-24T05:19:58;100599.78;;;9.44;73.90
21863;BME280;11096;51.338;12.524;2023-05-24T05:22:23;100604.47;;;9.53;73.28
21863;BME280;11096;51.338;12.524;2023-05-24T05:24:49;100601.13;;;9.51;72.65
21863;BME280;11096;51.338;12.524;2023-05-24T05:27:14;100605.59;;;9.63;71.51
21863;BME280;11096;51.338;12.524;2023-05-24T05:29:39;100601.88;;;9.53;70.74
21863;BME280;11096;51.338;12.524;2023-05-24T05:32:06;100599.84;;;9.28;70.46
21863;BME280;11096;51.338;12.524;2023-05-24T05:34:31;100604.66;;;9.50;70.35
21863;BME280;11096;51.338;12.524;2023-05-24T05:36:56;100606.13;;;9.54;70.45
21863;BME280;11096;51.338;12.524;2023-05-24T05:39:22;100609.84;;;9.50;70.18
21863;BME280;11096;51.338;12.524;2023-05-24T05:41:47;100607.38;;;9.47;70.01
21863;BME280;11096;51.338;12.524;2023-05-24T05:44:12;100610.91;;;9.76;69.47
21863;BME280;11096;51.338;12.524;2023-05-24T05:46:38;100598.19;;;9.72;69.05
21863;BME280;11096;51.338;12.524;2023-05-24T05:49:04;100600.63;;;9.75;68.48
21863;BME280;11096;51.338;12.524;2023-05-24T05:51:30;100604.72;;;9.79;68.63
21863;BME280;11096;51.338;12.524;2023-05-24T05:53:56;100604.28;;;10.01;68.12
21863;BME280;11096;51.338;12.524;2023-05-24T05:56:21;100609.72;;;9.82;67.90
21863;BME280;11096;51.338;12.524;2023-05-24T05:58:47;100607.34;;;9.93;68.20
21863;BME280;11096;51.338;12.524;2023-05-24T06:01:12;100605.59;;;10.22;67.66
21863;BME280;11096;51.338;12.524;2023-05-24T06:03:38;100601.09;;;10.55;66.71
21863;BME280;11096;51.338;12.524;2023-05-24T06:06:03;100603.41;;;10.45;66.76
21863;BME280;11096;51.338;12.524;2023-05-24T06:08:29;100602.72;;;10.70;66.58
21863;BME280;11096;51.338;12.524;2023-05-24T06:10:59;100599.75;;;10.90;65.99
21863;BME280;11096;51.338;12.524;2023-05-24T06:13:24;100608.44;;;10.89;64.97
21863;BME280;11096;51.338;12.524;2023-05-24T06:15:55;100613.31;;;10.67;65.02
21863;BME280;11096;51.338;12.524;2023-05-24T06:18:20;100609.81;;;10.39;65.76
21863;BME280;11096;51.338;12.524;2023-05-24T06:20:46;100613.09;;;10.99;65.18
21863;BME280;11096;51.338;12.524;2023-05-24T06:23:11;100605.66;;;10.92;64.66
21863;BME280;11096;51.338;12.524;2023-05-24T06:25:37;100616.59;;;10.98;64.06
21863;BME280;11096;51.338;12.524;2023-05-24T06:28:03;100619.53;;;11.20;63.61
21863;BME280;11096;51.338;12.524;2023-05-24T06:30:28;100622.00;;;11.49;63.59
21863;BME280;11096;51.338;12.524;2023-05-24T06:32:54;100625.50;;;11.08;63.36
21863;BME280;11096;51.338;12.524;2023-05-24T06:35:20;100617.50;;;11.38;63.38
21863;BME280;11096;51.338;12.524;2023-05-24T06:37:46;100618.91;;;11.29;62.35
21863;BME280;11096;51.338;12.524;2023-05-24T06:40:12;100612.13;;;11.00;62.62
21863;BME280;11096;51.338;12.524;2023-05-24T06:42:38;100625.44;;;10.95;62.98
21863;BME280;11096;51.338;12.524;2023-05-24T06:45:04;100622.31;;;11.17;61.92
21863;BME280;11096;51.338;12.524;2023-05-24T06:47:30;100626.00;;;11.27;62.33
21863;BME280;11096;51.338;12.524;2023-05-24T06:49:56;100621.44;;;11.31;62.45
21863;BME280;11096;51.338;12.524;2023-05-24T06:52:22;100620.78;;;11.54;62.23
21863;BME280;11096;51.338;12.524;2023-05-24T06:54:48;100628.13;;;11.75;61.79
21863;BME280;11096;51.338;12.524;2023-05-24T06:57:14;100629.63;;;12.17;60.59
21863;BME280;11096;51.338;12.524;2023-05-24T06:59:39;100627.78;;;12.19;61.29
21863;BME280;11096;51.338;12.524;2023-05-24T07:02:05;100624.72;;;11.87;60.28
21863;BME280;11096;51.338;12.524;2023-05-24T07:04:30;100634.69;;;11.80;60.16
21863;BME280;11096;51.338;12.524;2023-05-24T07:06:56;100637.75;;;12.13;59.66
21863;BME280;11096;51.338;12.524;2023-05-24T07:09:22;100639.34;;;11.63;60.02
21863;BME280;11096;51.338;12.524;2023-05-24T07:11:48;100637.75;;;12.00;60.68
21863;BME280;11096;51.338;12.524;2023-05-24T07:14:13;100642.84;;;11.61;60.00
21863;BME280;11096;51.338;12.524;2023-05-24T07:16:39;100640.81;;;11.67;60.78
21863;BME280;11096;51.338;12.524;2023-05-24T07:19:04;100643.19;;;11.57;59.89
21863;BME280;11096;51.338;12.524;2023-05-24T07:21:30;100638.41;;;12.03;59.84
21863;BME280;11096;51.338;12.524;2023-05-24T07:23:55;100636.00;;;12.13;59.14
21863;BME280;11096;51.338;12.524;2023-05-24T07:26:21;100640.91;;;12.31;59.25
21863;BME280;11096;51.338;12.524;2023-05-24T07:28:47;100643.09;;;12.11;59.40
21863;BME280;11096;51.338;12.524;2023-05-24T07:31:13;100641.22;;;12.39;58.73
21863;BME280;11096;51.338;12.524;2023-05-24T07:33:39;100639.03;;;12.45;58.56
21863;BME280;11096;51.338;12.524;2023-05-24T07:36:05;100638.41;;;12.42;59.00
21863;BME280;11096;51.338;12.524;2023-05-24T07:38:30;100635.47;;;12.46;58.12
21863;BME280;11096;51.338;12.524;2023-05-24T07:41:00;100638.69;;;12.37;57.76
21863;BME280;11096;51.338;12.524;2023-05-24T07:43:26;100633.28;;;13.03;56.99
21863;BME280;11096;51.338;12.524;2023-05-24T07:45:52;100636.22;;;12.36;56.88
21863;BME280;11096;51.338;12.524;2023-05-24T07:48:18;100633.34;;;12.64;56.63
21863;BME280;11096;51.338;12.524;2023-05-24T07:50:44;100628.28;;;12.87;55.64
21863;BME280;11096;51.338;12.524;2023-05-24T07:53:13;100627.41;;;12.62;54.73
21863;BME280;11096;51.338;12.524;2023-05-24T07:55:39;100635.09;;;12.77;55.34
21863;BME280;11096;51.338;12.524;2023-05-24T07:58:05;100634.03;;;13.29;55.28
21863;BME280;11096;51.338;12.524;2023-05-24T08:00:30;100625.75;;;13.59;54.28
21863;BME280;11096;51.338;12.524;2023-05-24T08:02:57;100630.41;;;13.78;53.22
21863;BME280;11096;51.338;12.524;2023-05-24T08:05:22;100635.22;;;13.49;54.76
21863;BME280;11096;51.338;12.524;2023-05-24T08:07:48;100641.53;;;13.34;55.34
21863;BME280;11096;51.338;12.524;2023-05-24T08:10:13;100633.53;;;13.48;55.50
21863;BME280;11096;51.338;12.524;2023-05-24T08:12:39;100630.72;;;13.62;56.30
21863;BME280;11096;51.338;12.524;2023-05-24T08:15:05;100637.56;;;13.76;56.17
21863;BME280;11096;51.338;12.524;2023-05-24T08:17:30;100637.53;;;13.41;56.86
21863;BME280;11096;51.338;12.524;2023-05-24T08:19:56;100640.50;;;13.23;57.21
21863;BME280;11096;51.338;12.524;2023-05-24T08:22:21;100639.78;;;13.34;57.12
21863;BME280;11096;51.338;12.524;2023-05-24T08:24:47;100638.16;;;13.80;56.98
21863;BME280;11096;51.338;12.524;2023-05-24T08:27:12;100645.25;;;13.42;57.21
21863;BME280;11096;51.338;12.524;2023-05-24T08:29:38;100630.44;;;18.92;50.73
21863;BME280;11096;51.338;12.524;2023-05-24T08:32:04;100627.50;;;17.44;48.39
21863;BME280;11096;51.338;12.524;2023-05-24T08:34:36;100634.91;;;16.90;47.85
21863;BME280;11096;51.338;12.524;2023-05-24T08:37:03;100637.59;;;17.58;46.58
21863;BME280;11096;51.338;12.524;2023-05-24T08:39:29;100634.78;;;16.51;47.88
21863;BME280;11096;51.338;12.524;2023-05-24T08:41:54;100639.63;;;15.51;49.66
21863;BME280;11096;51.338;12.524;2023-05-24T08:44:21;100634.72;;;15.25;48.84
21863;BME280;11096;51.338;12.524;2023-05-24T08:46:47;100640.19;;;14.56;50.35
21863;BME280;11096;51.338;12.524;2023-05-24T08:49:14;100643.88;;;14.54;51.62
21863;BME280;11096;51.338;12.524;2023-05-24T08:51:40;100645.66;;;14.65;51.62
21863;BME280;11096;51.338;12.524;2023-05-24T08:54:09;100643.50;;;14.47;52.65
21863;BME280;11096;51.338;12.524;2023-05-24T08:56:36;100645.50;;;14.32;53.03
21863;BME280;11096;51.338;12.524;2023-05-24T08:59:04;100655.88;;;13.87;53.19
21863;BME280;11096;51.338;12.524;2023-05-24T09:01:30;100654.91;;;14.35;53.65
21863;BME280;11096;51.338;12.524;2023-05-24T09:03:58;100653.50;;;15.31;51.99
21863;BME280;11096;51.338;12.524;2023-05-24T09:06:25;100644.09;;;17.64;48.49
21863;BME280;11096;51.338;12.524;2023-05-24T09:08:51;100639.84;;;20.28;43.84
21863;BME280;11096;51.338;12.524;2023-05-24T09:11:18;100645.31;;;19.11;42.29
21863;BME280;11096;51.338;12.524;2023-05-24T09:13:46;100651.25;;;18.11;44.30
21863;BME280;11096;51.338;12.524;2023-05-24T09:16:12;100651.13;;;17.34;45.65
21863;BME280;11096;51.338;12.524;2023-05-24T09:18:39;100662.03;;;17.01;46.08
21863;BME280;11096;51.338;12.524;2023-05-24T09:21:07;100656.25;;;15.61;48.43
21863;BME280;11096;51.338;12.524;2023-05-24T09:23:33;100661.06;;;15.13;50.87
21863;BME280;11096;51.338;12.524;2023-05-24T09:26:06;100664.19;;;14.95;51.60
21863;BME280;11096;51.338;12.524;2023-05-24T09:28:32;100659.78;;;14.73;52.40
21863;BME280;11096;51.338;12.524;2023-05-24T09:30:59;100669.75;;;14.46;53.67
21863;BME280;11096;51.338;12.524;2023-05-24T09:33:30;100655.56;;;15.16;53.35
21863;BME280;11096;51.338;12.524;2023-05-24T09:36:01;100653.03;;;14.82;53.11
21863;BME280;11096;51.338;12.524;2023-05-24T09:38:27;100639.66;;;22.29;43.59
21863;BME280;11096;51.338;12.524;2023-05-24T09:41:01;100628.91;;;25.69;35.45
21863;BME280;11096;51.338;12.524;2023-05-24T09:43:27;100625.00;;;27.37;30.58
21863;BME280;11096;51.338;12.524;2023-05-24T09:45:54;100633.41;;;22.70;35.43
21863;BME280;11096;51.338;12.524;2023-05-24T09:48:22;100631.50;;;20.75;37.09
21863;BME280;11096;51.338;12.524;2023-05-24T09:51:06;100641.28;;;19.07;40.09
21863;BME280;11096;51.338;12.524;2023-05-24T09:53:36;100651.06;;;16.03;44.46
21863;BME280;11096;51.338;12.524;2023-05-24T09:56:05;100645.19;;;16.72;45.75
21863;BME280;11096;51.338;12.524;2023-05-24T09:58:32;100651.19;;;16.23;46.65
21863;BME280;11096;51.338;12.524;2023-05-24T10:01:06;100656.72;;;15.78;48.77
21863;BME280;11096;51.338;12.524;2023-05-24T10:03:32;100662.06;;;15.65;49.13
21863;BME280;11096;51.338;12.524;2023-05-24T10:05:58;100661.25;;;15.64;50.21
21863;BME280;11096;51.338;12.524;2023-05-24T10:08:24;100671.97;;;15.61;50.91
21863;BME280;11096;51.338;12.524;2023-05-24T10:10:50;100661.59;;;15.39;50.25
21863;BME280;11096;51.338;12.524;2023-05-24T10:13:16;100658.75;;;15.31;50.07
21863;BME280;11096;51.338;12.524;2023-05-24T10:15:43;100673.50;;;15.75;50.33
21863;BME280;11096;51.338;12.524;2023-05-24T10:18:09;100674.78;;;16.02;48.76
21863;BME280;11096;51.338;12.524;2023-05-24T10:20:35;100672.72;;;16.47;47.94
21863;BME280;11096;51.338;12.524;2023-05-24T10:23:03;100659.47;;;16.80;47.65
21863;BME280;11096;51.338;12.524;2023-05-24T10:25:32;100660.78;;;17.14;47.07
21863;BME280;11096;51.338;12.524;2023-05-24T10:28:06;100662.66;;;18.49;45.66
21863;BME280;11096;51.338;12.524;2023-05-24T10:30:36;100669.16;;;19.09;44.45
21863;BME280;11096;51.338;12.524;2023-05-24T10:33:06;100669.91;;;18.64;44.39
21863;BME280;11096;51.338;12.524;2023-05-24T10:35:32;100669.81;;;18.94;43.56
21863;BME280;11096;51.338;12.524;2023-05-24T10:38:07;100669.94;;;18.55;44.55
21863;BME280;11096;51.338;12.524;2023-05-24T10:40:33;100678.63;;;18.28;45.54
21863;BME280;11096;51.338;12.524;2023-05-24T10:43:03;100681.53;;;17.27;46.63
21863;BME280;11096;51.338;12.524;2023-05-24T10:45:35;100673.50;;;16.69;48.06
21863;BME280;11096;51.338;12.524;2023-05-24T10:50:39;100678.88;;;16.16;48.62
21863;BME280;11096;51.338;12.524;2023-05-24T10:53:25;100678.88;;;15.62;48.50
21863;BME280;11096;51.338;12.524;2023-05-24T10:55:59;100676.97;;;16.48;48.51
21863;BME280;11096;51.338;12.524;2023-05-24T11:00:57;100677.41;;;17.34;47.15
21863;BME280;11096;51.338;12.524;2023-05-24T11:03:22;100673.22;;;18.76;45.40
21863;BME280;11096;51.338;12.524;2023-05-24T11:11:07;100665.69;;;17.87;44.69
21863;BME280;11096;51.338;12.524;2023-05-24T11:13:39;100683.38;;;17.36;47.38
21863;BME280;11096;51.338;12.524;2023-05-24T11:16:05;100680.34;;;17.70;46.57
21863;BME280;11096;51.338;12.524;2023-05-24T11:18:31;100677.16;;;18.06;46.06
21863;BME280;11096;51.338;12.524;2023-05-24T11:21:03;100677.00;;;17.49;46.82
21863;BME280;11096;51.338;12.524;2023-05-24T11:23:30;100678.25;;;17.45;47.20
21863;BME280;11096;51.338;12.524;2023-05-24T11:25:55;100672.31;;;17.33;47.52
21863;BME280;11096;51.338;12.524;2023-05-24T11:28:21;100681.53;;;17.27;47.76
21863;BME280;11096;51.338;12.524;2023-05-24T11:30:47;100678.13;;;17.56;47.59
21863;BME280;11096;51.338;12.524;2023-05-24T11:33:23;100680.31;;;17.31;47.20
21863;BME280;11096;51.338;12.524;2023-05-24T11:35:53;100668.97;;;17.21;46.33
21863;BME280;11096;51.338;12.524;2023-05-24T11:38:20;100670.78;;;17.98;45.36
21863;BME280;11096;51.338;12.524;2023-05-24T11:40:47;100673.06;;;18.31;46.11
21863;BME280;11096;51.338;12.524;2023-05-24T11:45:47;100670.47;;;20.21;41.76
21863;BME280;11096;51.338;12.524;2023-05-24T11:48:13;100662.28;;;20.32;42.22
21863;BME280;11096;51.338;12.524;2023-05-24T11:50:44;100652.22;;;21.13;40.90
21863;BME280;11096;51.338;12.524;2023-05-24T11:53:10;100647.34;;;21.67;40.55
21863;BME280;11096;51.338;12.524;2023-05-24T11:55:37;100650.38;;;22.53;37.51
21863;BME280;11096;51.338;12.524;2023-05-24T11:58:09;100652.72;;;21.16;39.61
21863;BME280;11096;51.338;12.524;2023-05-24T12:00:36;100661.88;;;22.68;38.01
21863;BME280;11096;51.338;12.524;2023-05-24T12:03:02;100659.53;;;22.17;37.91
21863;BME280;11096;51.338;12.524;2023-05-24T12:05:32;100656.47;;;21.56;39.00
21863;BME280;11096;51.338;12.524;2023-05-24T12:08:04;100667.47;;;20.76;39.88
21863;BME280;11096;51.338;12.524;2023-05-24T12:10:32;100662.66;;;21.22;39.75
21863;BME280;11096;51.338;12.524;2023-05-24T12:12:57;100670.84;;;22.59;39.54
21863;BME280;11096;51.338;12.524;2023-05-24T12:15:23;100662.41;;;25.35;34.62
21863;BME280;11096;51.338;12.524;2023-05-24T12:17:48;100665.88;;;23.72;34.91
21863;BME280;11096;51.338;12.524;2023-05-24T12:20:14;100667.16;;;22.04;36.98
21863;BME280;11096;51.338;12.524;2023-05-24T12:22:47;100681.75;;;20.31;38.18
21863;BME280;11096;51.338;12.524;2023-05-24T12:25:18;100664.44;;;21.14;38.14
21863;BME280;11096;51.338;12.524;2023-05-24T12:27:54;100662.84;;;21.37;37.45
21863;BME280;11096;51.338;12.524;2023-05-24T12:30:22;100666.03;;;21.98;37.56
21863;BME280;11096;51.338;12.524;2023-05-24T12:32:48;100667.97;;;22.29;37.27
21863;BME280;11096;51.338;12.524;2023-05-24T12:35:15;100662.00;;;21.20;37.68
21863;BME280;11096;51.338;12.524;2023-05-24T12:37:41;100665.59;;;19.82;37.58
21863;BME280;11096;51.338;12.524;2023-05-24T12:40:18;100659.75;;;21.58;37.97
21863;BME280;11096;51.338;12.524;2023-05-24T12:42:55;100653.88;;;23.62;36.45
21863;BME280;11096;51.338;12.524;2023-05-24T12:45:27;100649.09;;;23.57;35.60
21863;BME280;11096;51.338;12.524;2023-05-24T12:47:55;100657.72;;;23.97;35.72
21863;BME280;11096;51.338;12.524;2023-05-24T12:50:23;100643.19;;;25.40;32.44
21863;BME280;11096;51.338;12.524;2023-05-24T12:52:50;100638.84;;;26.10;30.96
21863;BME280;11096;51.338;12.524;2023-05-24T12:55:20;100644.88;;;25.90;30.75
21863;BME280;11096;51.338;12.524;2023-05-24T12:57:46;100641.66;;;24.58;32.86
21863;BME280;11096;51.338;12.524;2023-05-24T13:00:22;100655.06;;;21.36;36.60
21863;BME280;11096;51.338;12.524;2023-05-24T13:02:48;100649.00;;;21.43;37.01
21863;BME280;11096;51.338;12.524;2023-05-24T13:05:14;100643.53;;;21.94;36.26
21863;BME280;11096;51.338;12.524;2023-05-24T13:07:42;100642.94;;;20.92;37.63
21863;BME280;11096;51.338;12.524;2023-05-24T13:10:08;100649.50;;;20.80;37.50